createdAt,value
2022-12-15T00:02:18.906Z,100155.59
2022-12-15T00:05:04.544Z,100163.94
2022-12-15T00:07:50.102Z,100170.94
2022-12-15T00:10:35.829Z,100165.84
2022-12-15T00:13:21.609Z,100163.38
2022-12-15T00:16:08.935Z,100172.34
2022-12-15T00:18:54.480Z,100171.75
2022-12-15T00:21:39.897Z,100167.63
2022-12-15T00:24:25.873Z,100164.34
2022-12-15T00:27:11.756Z,100165.53
2022-12-15T00:29:57.220Z,100159.69
2022-12-15T00:32:44.493Z,100165.16
2022-12-15T00:35:30.216Z,100162.72
2022-12-15T00:38:15.663Z,100155.97
2022-12-15T00:40:43.771Z,100158.03
2022-12-15T00:43:12.215Z,100167.78
2022-12-15T00:45:58.069Z,100163.78
2022-12-15T00:48:27.851Z,100168.34
2022-12-15T00:50:54.952Z,100162.34
2022-12-15T00:53:40.905Z,100168.59
2022-12-15T00:56:26.676Z,100175.84
2022-12-15T00:59:12.128Z,100169.88
2022-12-15T01:01:58.235Z,100169.69
2022-12-15T01:04:45.694Z,100181.66
2022-12-15T01:07:31.307Z,100171.06
2022-12-15T01:10:16.730Z,100171.81
2022-12-15T01:13:02.304Z,100164.75
2022-12-15T01:15:47.911Z,100157.31
2022-12-15T01:18:33.543Z,100156.88
2022-12-15T01:21:04.981Z,100150.06
2022-12-15T01:23:33.978Z,100152.09
2022-12-15T01:26:02.679Z,100155.00
2022-12-15T01:28:30.933Z,100157.63
2022-12-15T01:30:59.156Z,100159.50
2022-12-15T01:33:27.651Z,100164.91
2022-12-15T01:35:56.892Z,100155.38
2022-12-15T01:38:26.666Z,100155.50
2022-12-15T01:40:54.971Z,100162.59
2022-12-15T01:43:24.035Z,100156.53
2022-12-15T01:45:57.843Z,100162.69
2022-12-15T01:48:28.240Z,100166.41
2022-12-15T01:51:05.963Z,100160.41
2022-12-15T01:53:38.903Z,100161.38
2022-12-15T01:56:07.851Z,100168.50
2022-12-15T01:58:36.199Z,100171.91
2022-12-15T02:01:04.735Z,100169.34
2022-12-15T02:03:33.792Z,100172.03
2022-12-15T02:06:02.839Z,100165.19
2022-12-15T02:08:31.551Z,100163.66
2022-12-15T02:11:09.216Z,100167.19
2022-12-15T02:13:41.848Z,100170.69
2022-12-15T02:16:15.718Z,100172.41
2022-12-15T02:18:47.876Z,100174.38
2022-12-15T02:21:19.132Z,100174.50
2022-12-15T02:24:02.348Z,100179.75
2022-12-15T02:26:45.287Z,100172.78
2022-12-15T02:29:24.664Z,100178.09
2022-12-15T02:31:57.274Z,100182.59
2022-12-15T02:34:32.078Z,100186.88
2022-12-15T02:37:03.252Z,100179.06
2022-12-15T02:39:31.366Z,100182.56
2022-12-15T02:41:59.419Z,100175.66
2022-12-15T02:44:31.048Z,100178.47
2022-12-15T02:47:13.967Z,100174.97
2022-12-15T02:49:49.942Z,100173.25
2022-12-15T02:52:24.142Z,100170.63
2022-12-15T02:55:03.035Z,100162.88
2022-12-15T02:57:38.666Z,100168.28
2022-12-15T03:00:09.891Z,100165.56
2022-12-15T03:02:41.164Z,100162.88
2022-12-15T03:05:13.844Z,100173.38
2022-12-15T03:07:43.017Z,100169.00
2022-12-15T03:10:13.698Z,100172.41
2022-12-15T03:12:41.886Z,100175.88
2022-12-15T03:15:10.300Z,100180.47
2022-12-15T03:17:39.279Z,100180.63
2022-12-15T03:20:09.135Z,100180.84
2022-12-15T03:22:38.938Z,100176.63
2022-12-15T03:25:07.404Z,100171.38
2022-12-15T03:27:37.941Z,100166.94
2022-12-15T03:30:06.863Z,100165.16
2022-12-15T03:32:35.094Z,100164.25
2022-12-15T03:35:03.266Z,100165.03
2022-12-15T03:37:31.288Z,100172.00
2022-12-15T03:40:00.929Z,100168.41
2022-12-15T03:42:46.300Z,100167.44
2022-12-15T03:45:14.526Z,100168.47
2022-12-15T03:47:42.988Z,100161.50
2022-12-15T03:50:12.107Z,100163.28
2022-12-15T03:52:40.267Z,100160.78
2022-12-15T03:55:11.278Z,100163.41
2022-12-15T03:57:39.540Z,100163.50
2022-12-15T04:00:08.432Z,100163.50
2022-12-15T04:02:40.776Z,100166.13
2022-12-15T04:05:15.207Z,100162.66
2022-12-15T04:07:43.307Z,100168.75
2022-12-15T04:10:13.683Z,100172.25
2022-12-15T04:12:41.848Z,100169.69
2022-12-15T04:15:10.693Z,100169.81
2022-12-15T04:17:39.794Z,100174.38
2022-12-15T04:20:11.341Z,100170.28
2022-12-15T04:22:40.281Z,100165.03
2022-12-15T04:25:27.184Z,100162.41
2022-12-15T04:28:14.727Z,100157.28
2022-12-15T04:31:02.718Z,100153.84
2022-12-15T04:33:48.968Z,100159.09
2022-12-15T04:36:35.028Z,100153.84
2022-12-15T04:39:22.535Z,100160.81
2022-12-15T04:42:07.983Z,100146.84
2022-12-15T04:44:55.448Z,100152.09
2022-12-15T04:47:40.718Z,100147.81
2022-12-15T04:50:26.989Z,100143.59
2022-12-15T04:53:12.464Z,100141.94
2022-12-15T04:55:58.008Z,100144.44
2022-12-15T04:58:43.543Z,100145.44
2022-12-15T05:01:31.153Z,100142.00
2022-12-15T05:04:16.939Z,100147.25
2022-12-15T05:07:02.642Z,100148.97
2022-12-15T05:09:48.173Z,100147.25
2022-12-15T05:12:33.727Z,100148.09
2022-12-15T05:15:19.215Z,100148.16
2022-12-15T05:18:06.401Z,100157.75
2022-12-15T05:20:51.774Z,100159.47
2022-12-15T05:23:37.495Z,100152.50
2022-12-15T05:26:23.144Z,100159.59
2022-12-15T05:29:08.854Z,100156.16
2022-12-15T05:31:51.939Z,100157.19
2022-12-15T05:34:23.528Z,100152.84
2022-12-15T05:36:52.078Z,100157.03
2022-12-15T05:39:21.101Z,100157.13
2022-12-15T05:41:49.249Z,100157.13
2022-12-15T05:44:17.471Z,100154.59
2022-12-15T05:46:45.914Z,100151.28
2022-12-15T05:49:15.315Z,100154.69
2022-12-15T05:51:45.878Z,100171.34
2022-12-15T05:54:15.610Z,100173.13
2022-12-15T05:56:44.086Z,100185.22
2022-12-15T05:59:12.412Z,100185.22
2022-12-15T06:01:40.995Z,100179.97
2022-12-15T06:04:09.189Z,100181.84
2022-12-15T06:06:37.274Z,100173.97
2022-12-15T06:09:06.781Z,100179.13
2022-12-15T06:11:34.956Z,100184.44
2022-12-15T06:14:03.083Z,100183.66
2022-12-15T06:16:31.454Z,100184.44
2022-12-15T06:19:00.535Z,100181.81
2022-12-15T06:21:29.907Z,100183.53
2022-12-15T06:23:58.444Z,100182.75
2022-12-15T06:26:29.474Z,100187.13
2022-12-15T06:28:58.459Z,100180.94
2022-12-15T06:31:27.484Z,100182.66
2022-12-15T06:34:01.238Z,100191.41
2022-12-15T06:36:30.987Z,100189.69
2022-12-15T06:39:00.018Z,100193.91
2022-12-15T06:41:31.220Z,100191.22
2022-12-15T06:43:59.957Z,100196.44
2022-12-15T06:46:29.283Z,100191.22
2022-12-15T06:48:57.930Z,100195.47
2022-12-15T06:51:26.390Z,100188.59
2022-12-15T06:53:55.731Z,100186.88
2022-12-15T06:56:30.743Z,100190.41
2022-12-15T06:59:03.713Z,100191.28
2022-12-15T07:01:32.349Z,100180.81
2022-12-15T07:04:03.230Z,100194.91
2022-12-15T07:06:34.298Z,100205.34
2022-12-15T07:09:02.351Z,100205.22
2022-12-15T07:11:30.678Z,100194.84
2022-12-15T07:13:58.791Z,100205.34
2022-12-15T07:16:28.452Z,100199.34
2022-12-15T07:18:56.613Z,100205.44
2022-12-15T07:21:24.847Z,100209.00
2022-12-15T07:23:55.361Z,100213.34
2022-12-15T07:26:24.842Z,100212.41
2022-12-15T07:28:53.819Z,100214.00
2022-12-15T07:31:23.090Z,100220.09
2022-12-15T07:33:54.812Z,100220.09
2022-12-15T07:36:23.220Z,100214.00
2022-12-15T07:38:52.033Z,100210.47
2022-12-15T07:41:21.175Z,100211.38
2022-12-15T07:43:49.421Z,100221.81
2022-12-15T07:46:18.491Z,100224.59
2022-12-15T07:48:50.266Z,100231.56
2022-12-15T07:51:21.529Z,100227.22
2022-12-15T07:53:50.844Z,100224.72
2022-12-15T07:56:19.312Z,100228.13
2022-12-15T07:58:47.993Z,100238.63
2022-12-15T08:01:16.866Z,100237.03
2022-12-15T08:03:45.298Z,100239.59
2022-12-15T08:06:14.484Z,100244.81
2022-12-15T08:08:44.932Z,100235.28
2022-12-15T08:11:19.511Z,100236.22
2022-12-15T08:14:05.091Z,100241.41
2022-12-15T08:16:36.725Z,100247.38
2022-12-15T08:19:05.653Z,100248.16
2022-12-15T08:21:34.153Z,100259.41
2022-12-15T08:24:04.237Z,100249.66
2022-12-15T08:26:32.288Z,100262.66
2022-12-15T08:29:24.573Z,100268.72
2022-12-15T08:31:50.990Z,100269.63
2022-12-15T08:34:19.378Z,100276.59
2022-12-15T08:36:47.570Z,100287.28
2022-12-15T08:39:17.787Z,100286.22
2022-12-15T08:41:46.157Z,100286.03
2022-12-15T08:44:14.188Z,100285.00
2022-12-15T08:46:42.538Z,100280.53
2022-12-15T08:49:12.502Z,100293.59
2022-12-15T08:51:43.650Z,100294.31
2022-12-15T08:54:11.734Z,100296.03
2022-12-15T08:56:41.222Z,100298.72
2022-12-15T08:59:10.853Z,100296.84
2022-12-15T09:01:40.544Z,100306.34
2022-12-15T09:04:08.892Z,100313.25
2022-12-15T09:06:37.720Z,100320.94
2022-12-15T09:09:07.784Z,100320.00
2022-12-15T09:11:35.941Z,100317.31
2022-12-15T09:14:05.739Z,100319.03
2022-12-15T09:16:33.929Z,100319.88
2022-12-15T09:19:02.165Z,100335.47
2022-12-15T09:21:32.078Z,100335.28
2022-12-15T09:24:01.893Z,100338.63
2022-12-15T09:26:30.930Z,100343.63
2022-12-15T09:28:59.109Z,100341.72
2022-12-15T09:31:29.621Z,100349.41
2022-12-15T09:33:59.780Z,100357.94
2022-12-15T09:36:30.453Z,100355.19
2022-12-15T09:38:58.672Z,100357.59
2022-12-15T09:41:28.420Z,100347.75
2022-12-15T09:43:58.986Z,100347.53
2022-12-15T09:46:35.970Z,100349.91
2022-12-15T09:49:06.857Z,100353.22
2022-12-15T09:51:36.180Z,100359.94
2022-12-15T09:54:05.152Z,100370.91
2022-12-15T09:56:39.038Z,100371.41
2022-12-15T09:59:14.070Z,100375.47
2022-12-15T10:01:47.293Z,100376.06
2022-12-15T10:04:21.241Z,100393.06
2022-12-15T10:06:51.667Z,100382.84
2022-12-15T10:09:21.771Z,100377.84
2022-12-15T10:11:52.468Z,100373.75
2022-12-15T10:14:24.807Z,100375.06
2022-12-15T10:17:00.532Z,100372.91
2022-12-15T10:19:32.375Z,100391.66
2022-12-15T10:22:00.901Z,100389.75
2022-12-15T10:25:07.878Z,100399.66
2022-12-15T10:27:29.234Z,100397.38
2022-12-15T10:30:01.821Z,100386.34
2022-12-15T10:35:30.188Z,100397.03
2022-12-15T10:38:00.090Z,100398.97
2022-12-15T10:40:45.131Z,100403.31
2022-12-15T10:43:26.116Z,100402.09
2022-12-15T10:46:01.674Z,100406.47
2022-12-15T10:48:31.349Z,100405.31
2022-12-15T10:51:15.523Z,100411.13
2022-12-15T10:53:44.875Z,100417.22
2022-12-15T10:56:28.844Z,100412.38
2022-12-15T10:59:02.143Z,100402.94
2022-12-15T11:01:31.641Z,100402.28
2022-12-15T11:04:01.416Z,100402.97
2022-12-15T11:06:30.888Z,100395.88
2022-12-15T11:09:09.182Z,100392.78
2022-12-15T11:12:04.280Z,100386.69
2022-12-15T11:14:43.593Z,100376.06
2022-12-15T11:17:15.448Z,100372.44
2022-12-15T11:19:49.232Z,100361.91
2022-12-15T11:22:22.856Z,100365.78
2022-12-15T11:24:52.728Z,100354.84
2022-12-15T11:27:24.872Z,100355.66
2022-12-15T11:29:58.296Z,100348.22
2022-12-15T11:32:27.260Z,100341.69
2022-12-15T11:34:57.343Z,100336.66
2022-12-15T11:37:38.518Z,100330.78
2022-12-15T11:40:16.518Z,100318.97
2022-12-15T11:42:49.160Z,100324.41
2022-12-15T11:45:21.085Z,100321.94
2022-12-15T11:47:51.177Z,100328.38
2022-12-15T11:50:27.747Z,100322.97
2022-12-15T11:53:02.765Z,100309.03
2022-12-15T11:55:41.264Z,100313.75
2022-12-15T11:58:24.969Z,100300.00
2022-12-15T12:01:00.211Z,100314.72
2022-12-15T12:03:34.487Z,100311.34
2022-12-15T12:06:17.366Z,100303.19
2022-12-15T12:09:00.569Z,100295.31
2022-12-15T12:11:33.061Z,100293.88
2022-12-15T12:14:11.633Z,100302.38
2022-12-15T12:16:43.050Z,100295.03
2022-12-15T12:19:12.574Z,100289.97
2022-12-15T12:21:42.732Z,100293.63
2022-12-15T12:24:14.958Z,100292.50
2022-12-15T12:26:48.785Z,100300.41
2022-12-15T12:29:35.998Z,100302.09
2022-12-15T12:32:05.971Z,100298.34
2022-12-15T12:34:39.072Z,100295.56
2022-12-15T12:37:15.172Z,100292.44
2022-12-15T12:39:44.304Z,100287.66
2022-12-15T12:42:17.895Z,100294.38
2022-12-15T12:44:46.134Z,100292.91
2022-12-15T12:47:20.350Z,100297.78
2022-12-15T12:49:50.928Z,100291.19
2022-12-15T12:52:23.072Z,100303.88
2022-12-15T12:54:57.599Z,100301.84
2022-12-15T12:57:34.914Z,100292.69
2022-12-15T13:00:04.279Z,100302.88
2022-12-15T13:02:45.254Z,100301.19
2022-12-15T13:05:24.660Z,100312.78
2022-12-15T13:07:55.334Z,100306.09
2022-12-15T13:10:24.801Z,100312.41
2022-12-15T13:12:55.567Z,100309.16
2022-12-15T13:15:37.460Z,100306.84
2022-12-15T13:18:09.708Z,100307.56
2022-12-15T13:20:38.569Z,100308.50
2022-12-15T13:23:34.404Z,100313.81
2022-12-15T13:26:16.017Z,100311.63
2022-12-15T13:28:52.254Z,100310.25
2022-12-15T13:31:27.786Z,100315.94
2022-12-15T13:34:14.235Z,100315.44
2022-12-15T13:36:52.507Z,100324.88
2022-12-15T13:39:56.687Z,100324.88
2022-12-15T13:42:35.049Z,100325.09
2022-12-15T13:45:34.440Z,100331.63
2022-12-15T13:48:07.169Z,100336.47
2022-12-15T13:50:40.708Z,100342.03
2022-12-15T13:53:19.672Z,100346.00
2022-12-15T13:55:58.365Z,100342.69
2022-12-15T13:58:27.909Z,100346.91
2022-12-15T14:00:58.107Z,100340.19
2022-12-15T14:03:29.052Z,100338.94
2022-12-15T14:05:58.808Z,100330.66
2022-12-15T14:08:28.300Z,100330.91
2022-12-15T14:10:57.436Z,100331.72
2022-12-15T14:13:26.824Z,100325.28
2022-12-15T14:15:56.142Z,100320.28
2022-12-15T14:18:26.788Z,100317.97
2022-12-15T14:20:56.456Z,100331.59
2022-12-15T14:23:25.726Z,100330.75
2022-12-15T14:25:54.746Z,100330.97
2022-12-15T14:28:25.642Z,100338.72
2022-12-15T14:30:54.485Z,100332.91
2022-12-15T14:33:27.965Z,100336.41
2022-12-15T14:36:00.303Z,100348.00
2022-12-15T14:38:31.916Z,100344.84
2022-12-15T14:41:02.481Z,100344.72
2022-12-15T14:43:33.517Z,100346.84
2022-12-15T14:46:07.769Z,100339.31
2022-12-15T14:48:42.131Z,100342.47
2022-12-15T14:51:14.461Z,100343.75
2022-12-15T14:53:44.714Z,100336.97
2022-12-15T14:56:27.804Z,100333.56
2022-12-15T14:59:03.951Z,100332.94
2022-12-15T15:01:36.286Z,100333.38
2022-12-15T15:03:04.487Z,100399.53
2022-12-15T15:04:06.340Z,100345.94
2022-12-15T15:06:40.187Z,100349.75
2022-12-15T15:09:20.079Z,100356.78
2022-12-15T15:11:49.492Z,100362.28
2022-12-15T15:14:19.625Z,100352.66
2022-12-15T15:16:59.687Z,100360.84
2022-12-15T15:19:27.937Z,100360.19
2022-12-15T15:21:57.596Z,100365.72
2022-12-15T15:24:26.716Z,100365.06
2022-12-15T15:26:55.108Z,100368.03
2022-12-15T15:29:39.372Z,100367.41
2022-12-15T15:32:08.857Z,100364.44
2022-12-15T15:34:37.213Z,100379.72
2022-12-15T15:37:14.959Z,100378.34
2022-12-15T15:39:46.050Z,100395.44
2022-12-15T15:42:14.502Z,100386.06
2022-12-15T15:44:42.770Z,100387.16
2022-12-15T15:47:18.270Z,100384.16
2022-12-15T15:49:47.166Z,100384.94
2022-12-15T15:52:16.795Z,100388.13
2022-12-15T15:54:45.699Z,100397.66
2022-12-15T15:57:15.435Z,100394.75
2022-12-15T15:59:44.317Z,100392.66
2022-12-15T16:02:13.883Z,100387.88
2022-12-15T16:04:43.106Z,100388.75
2022-12-15T16:07:18.392Z,100392.94
2022-12-15T16:09:46.803Z,100392.66
2022-12-15T16:12:23.083Z,100398.56
2022-12-15T16:14:51.192Z,100392.09
2022-12-15T16:17:20.037Z,100396.06
2022-12-15T16:19:48.940Z,100398.47
2022-12-15T16:22:20.527Z,100395.50
2022-12-15T16:24:48.848Z,100400.69
2022-12-15T16:27:17.635Z,100404.16
2022-12-15T16:29:45.795Z,100407.41
2022-12-15T16:32:13.922Z,100397.56
2022-12-15T16:34:42.795Z,100402.34
2022-12-15T16:37:18.682Z,100400.97
2022-12-15T16:39:48.312Z,100410.50
2022-12-15T16:42:16.454Z,100407.41
2022-12-15T16:44:44.787Z,100408.00
2022-12-15T16:47:13.087Z,100414.50
2022-12-15T16:49:41.732Z,100413.84
2022-12-15T16:52:13.288Z,100407.00
2022-12-15T16:54:42.014Z,100410.66
2022-12-15T16:57:12.937Z,100420.72
2022-12-15T16:59:41.262Z,100422.09
2022-12-15T17:02:21.121Z,100418.50
2022-12-15T17:04:50.355Z,100423.59
2022-12-15T17:07:20.626Z,100414.53
2022-12-15T17:09:49.733Z,100427.06
2022-12-15T17:12:20.026Z,100409.97
2022-12-15T17:14:48.539Z,100411.16
2022-12-15T17:17:17.733Z,100417.53
2022-12-15T17:20:11.715Z,100422.66
2022-12-15T17:22:35.275Z,100421.84
2022-12-15T17:25:03.749Z,100428.03
2022-12-15T17:27:33.366Z,100438.59
2022-12-15T17:30:01.887Z,100432.44
2022-12-15T17:32:30.050Z,100431.59
2022-12-15T17:34:58.315Z,100429.97
2022-12-15T17:37:31.894Z,100445.28
2022-12-15T17:40:03.835Z,100439.47
2022-12-15T17:42:33.396Z,100436.09
2022-12-15T17:45:01.916Z,100441.69
2022-12-15T17:47:30.702Z,100449.13
2022-12-15T17:49:58.780Z,100446.19
2022-12-15T17:52:28.595Z,100449.75
2022-12-15T17:54:57.201Z,100454.31
2022-12-15T17:57:25.654Z,100456.34
2022-12-15T17:59:55.759Z,100457.53
2022-12-15T18:02:24.396Z,100458.72
2022-12-15T18:04:53.493Z,100460.34
2022-12-15T18:07:22.700Z,100469.41
2022-12-15T18:09:51.600Z,100461.63
2022-12-15T18:12:21.341Z,100459.59
2022-12-15T18:14:49.696Z,100462.44
2022-12-15T18:17:19.515Z,100462.50
2022-12-15T18:19:47.653Z,100466.09
2022-12-15T18:22:18.363Z,100466.09
2022-12-15T18:24:46.584Z,100469.44
2022-12-15T18:27:20.996Z,100474.94
2022-12-15T18:29:49.457Z,100473.34
2022-12-15T18:32:19.868Z,100469.16
2022-12-15T18:34:48.047Z,100477.97
2022-12-15T18:37:17.600Z,100473.00
2022-12-15T18:39:46.348Z,100489.72
2022-12-15T18:42:15.527Z,100490.03
2022-12-15T18:44:46.748Z,100490.09
2022-12-15T18:47:16.702Z,100492.16
2022-12-15T18:49:48.855Z,100495.69
2022-12-15T18:52:18.810Z,100499.91
2022-12-15T18:54:47.948Z,100496.66
2022-12-15T18:57:26.267Z,100501.41
2022-12-15T18:59:54.879Z,100509.38
2022-12-15T19:02:23.020Z,100515.63
2022-12-15T19:04:52.679Z,100508.63
2022-12-15T19:07:21.218Z,100506.66
2022-12-15T19:09:50.086Z,100497.84
2022-12-15T19:12:20.985Z,100511.66
2022-12-15T19:14:50.777Z,100520.38
2022-12-15T19:17:37.417Z,100518.66
2022-12-15T19:20:25.644Z,100523.16
2022-12-15T19:22:54.096Z,100517.22
2022-12-15T19:25:26.158Z,100509.31
2022-12-15T19:27:59.357Z,100512.72
2022-12-15T19:30:28.869Z,100504.81
2022-12-15T19:32:57.115Z,100511.81
2022-12-15T19:35:27.415Z,100515.34
2022-12-15T19:37:56.836Z,100520.75
2022-12-15T19:40:27.608Z,100521.81
2022-12-15T19:42:56.144Z,100514.06
2022-12-15T19:45:25.786Z,100518.56
2022-12-15T19:47:54.181Z,100517.88
2022-12-15T19:50:23.906Z,100525.00
2022-12-15T19:52:56.060Z,100527.66
2022-12-15T19:55:26.766Z,100525.00
2022-12-15T19:57:55.041Z,100528.69
2022-12-15T20:00:24.897Z,100537.50
2022-12-15T20:02:54.942Z,100531.34
2022-12-15T20:05:23.647Z,100537.50
2022-12-15T20:07:55.230Z,100532.44
2022-12-15T20:10:29.496Z,100527.25
2022-12-15T20:13:00.933Z,100523.88
2022-12-15T20:15:29.130Z,100516.09
2022-12-15T20:17:57.855Z,100516.31
2022-12-15T20:20:27.201Z,100523.53
2022-12-15T20:22:57.952Z,100521.84
2022-12-15T20:25:27.364Z,100524.59
2022-12-15T20:27:55.857Z,100526.44
2022-12-15T20:30:25.287Z,100522.25
2022-12-15T20:32:54.201Z,100530.56
2022-12-15T20:35:23.091Z,100531.59
2022-12-15T20:37:52.619Z,100524.63
2022-12-15T20:40:23.426Z,100529.09
2022-12-15T20:42:52.825Z,100527.44
2022-12-15T20:45:22.104Z,100526.63
2022-12-15T20:47:51.229Z,100529.47
2022-12-15T20:50:24.799Z,100533.00
2022-12-15T20:52:53.174Z,100536.81
2022-12-15T20:55:24.715Z,100538.59
2022-12-15T20:57:53.110Z,100535.97
2022-12-15T21:00:21.968Z,100538.66
2022-12-15T21:02:51.823Z,100537.06
2022-12-15T21:05:21.547Z,100536.28
2022-12-15T21:07:50.205Z,100533.69
2022-12-15T21:10:22.667Z,100530.19
2022-12-15T21:12:52.863Z,100530.19
2022-12-15T21:15:22.290Z,100525.84
2022-12-15T21:18:10.956Z,100528.59
2022-12-15T21:20:41.358Z,100528.88
2022-12-15T21:23:17.906Z,100526.22
2022-12-15T21:25:46.028Z,100529.78
2022-12-15T21:28:15.674Z,100528.13
2022-12-15T21:30:44.222Z,100535.22
2022-12-15T21:33:12.526Z,100532.53
2022-12-15T21:35:41.181Z,100539.63
2022-12-15T21:38:18.617Z,100535.28
2022-12-15T21:40:46.791Z,100530.94
2022-12-15T21:43:16.463Z,100530.94
2022-12-15T21:45:44.648Z,100532.78
2022-12-15T21:48:30.525Z,100536.19
2022-12-15T21:50:59.064Z,100541.34
2022-12-15T21:53:27.724Z,100536.94
2022-12-15T21:55:57.691Z,100535.09
2022-12-15T21:58:28.119Z,100540.16
2022-12-15T22:00:56.323Z,100542.66
2022-12-15T22:03:24.757Z,100544.22
2022-12-15T22:05:52.913Z,100540.53
2022-12-15T22:08:22.111Z,100537.63
2022-12-15T22:10:51.967Z,100546.97
2022-12-15T22:13:20.882Z,100546.59
2022-12-15T22:15:51.651Z,100552.34
2022-12-15T22:18:22.412Z,100545.66
2022-12-15T22:20:52.468Z,100552.00
2022-12-15T22:23:21.462Z,100558.59
2022-12-15T22:25:51.846Z,100559.91
2022-12-15T22:28:21.795Z,100561.19
2022-12-15T22:30:51.851Z,100564.13
2022-12-15T22:33:23.945Z,100569.81
2022-12-15T22:35:52.765Z,100575.56
2022-12-15T22:38:24.040Z,100579.44
2022-12-15T22:40:55.434Z,100593.13
2022-12-15T22:43:26.949Z,100591.00
2022-12-15T22:45:57.294Z,100593.31
2022-12-15T22:48:29.995Z,100597.31
2022-12-15T22:50:58.445Z,100602.22
2022-12-15T22:53:28.079Z,100598.44
2022-12-15T22:55:56.473Z,100599.84
2022-12-15T22:58:26.807Z,100606.63
2022-12-15T23:00:58.871Z,100603.84
2022-12-15T23:03:28.810Z,100612.41
2022-12-15T23:05:58.700Z,100606.06
2022-12-15T23:08:27.025Z,100607.63
2022-12-15T23:11:12.691Z,100607.47
2022-12-15T23:13:41.238Z,100606.41
2022-12-15T23:16:27.771Z,100601.81
2022-12-15T23:18:56.454Z,100606.09
2022-12-15T23:21:25.460Z,100603.22
2022-12-15T23:23:53.610Z,100607.50
2022-12-15T23:26:24.052Z,100602.06
2022-12-15T23:28:52.156Z,100601.91
2022-12-15T23:31:22.106Z,100604.50
2022-12-15T23:33:52.184Z,100602.72
2022-12-15T23:36:20.385Z,100605.22
2022-12-15T23:38:48.456Z,100612.22
2022-12-15T23:41:17.903Z,100616.63
2022-12-15T23:43:45.993Z,100615.78
2022-12-15T23:46:14.457Z,100610.34
2022-12-15T23:48:46.864Z,100604.22
2022-12-15T23:51:16.386Z,100602.34
2022-12-15T23:53:45.202Z,100604.91
2022-12-15T23:56:14.332Z,100595.47
2022-12-15T23:58:43.744Z,100601.50
